createdAt,value
2022-08-29T00:00:44.163Z,86.70
2022-08-29T00:03:21.105Z,86.70
2022-08-29T00:05:50.177Z,86.70
2022-08-29T00:08:24.163Z,86.70
2022-08-29T00:10:58.417Z,86.80
2022-08-29T00:13:33.048Z,87.00
2022-08-29T00:16:07.176Z,86.90
2022-08-29T00:18:35.343Z,86.80
2022-08-29T00:21:10.528Z,86.90
2022-08-29T00:23:44.227Z,86.90
2022-08-29T00:26:11.678Z,86.90
2022-08-29T00:28:41.270Z,86.80
2022-08-29T00:31:15.223Z,87.10
2022-08-29T00:33:42.438Z,87.10
2022-08-29T00:36:17.115Z,87.10
2022-08-29T00:38:45.198Z,87.00
2022-08-29T00:41:19.164Z,87.00
2022-08-29T00:43:47.820Z,87.00
2022-08-29T00:46:40.348Z,87.00
2022-08-29T00:49:09.637Z,87.10
2022-08-29T00:51:44.290Z,87.20
2022-08-29T00:54:12.574Z,87.20
2022-08-29T00:56:41.962Z,87.00
2022-08-29T00:59:22.229Z,87.20
2022-08-29T01:01:51.465Z,87.20
2022-08-29T01:04:26.115Z,87.30
2022-08-29T01:06:55.009Z,87.40
2022-08-29T01:09:30.339Z,87.30
2022-08-29T01:12:16.423Z,87.30
2022-08-29T01:14:57.320Z,87.20
2022-08-29T01:17:31.910Z,87.20
2022-08-29T01:20:26.352Z,87.30
2022-08-29T01:23:02.557Z,87.30
2022-08-29T01:25:40.093Z,87.20
2022-08-29T01:28:13.946Z,87.30
2022-08-29T01:31:06.329Z,87.40
2022-08-29T01:33:36.833Z,87.50
2022-08-29T01:36:10.232Z,87.50
2022-08-29T01:38:38.619Z,87.50
2022-08-29T01:41:06.179Z,87.40
2022-08-29T01:43:45.333Z,87.40
2022-08-29T01:46:15.174Z,87.40
2022-08-29T01:48:50.333Z,87.30
2022-08-29T01:51:18.363Z,87.20
2022-08-29T01:53:52.349Z,87.20
2022-08-29T01:56:28.393Z,87.20
2022-08-29T01:58:56.641Z,87.20
2022-08-29T02:01:33.197Z,87.10
2022-08-29T02:04:07.190Z,87.00
2022-08-29T02:06:41.169Z,87.00
2022-08-29T02:09:15.213Z,87.00
2022-08-29T02:11:49.268Z,87.10
2022-08-29T02:14:23.275Z,87.10
2022-08-29T02:16:57.258Z,86.90
2022-08-29T02:19:31.444Z,86.90
2022-08-29T02:22:05.618Z,87.00
2022-08-29T02:24:33.158Z,87.10
2022-08-29T02:27:07.337Z,87.20
2022-08-29T02:29:38.478Z,87.20
2022-08-29T02:32:14.334Z,87.20
2022-08-29T02:34:50.255Z,87.10
2022-08-29T02:37:18.554Z,87.00
2022-08-29T02:39:52.788Z,87.00
2022-08-29T02:42:26.353Z,86.90
2022-08-29T02:44:53.694Z,87.00
2022-08-29T02:47:27.240Z,87.00
2022-08-29T02:49:55.440Z,87.10
2022-08-29T02:52:29.163Z,87.10
2022-08-29T02:55:00.548Z,87.10
2022-08-29T02:57:34.288Z,87.10
2022-08-29T03:00:01.420Z,87.10
2022-08-29T03:02:35.313Z,87.00
2022-08-29T03:05:09.178Z,87.00
2022-08-29T03:07:36.677Z,86.90
2022-08-29T03:10:13.585Z,86.90
2022-08-29T03:12:48.219Z,86.90
2022-08-29T03:15:22.493Z,86.80
2022-08-29T03:17:56.434Z,86.90
2022-08-29T03:20:24.993Z,86.90
2022-08-29T03:23:01.230Z,86.80
2022-08-29T03:25:35.339Z,86.80
2022-08-29T03:28:10.696Z,86.70
2022-08-29T03:30:38.414Z,86.70
2022-08-29T03:33:12.323Z,86.80
2022-08-29T03:35:40.625Z,87.10
2022-08-29T03:38:14.228Z,87.20
2022-08-29T03:40:49.608Z,87.00
2022-08-29T03:43:23.729Z,87.00
2022-08-29T03:45:51.044Z,86.70
2022-08-29T03:48:18.185Z,86.70
2022-08-29T03:50:56.224Z,86.80
2022-08-29T03:53:24.144Z,86.70
2022-08-29T03:55:58.169Z,86.90
2022-08-29T03:58:25.476Z,86.80
2022-08-29T04:00:52.738Z,86.80
2022-08-29T04:03:31.145Z,87.00
2022-08-29T04:05:59.737Z,87.00
2022-08-29T04:08:33.204Z,87.00
2022-08-29T04:11:24.289Z,87.00
2022-08-29T04:13:52.283Z,87.00
2022-08-29T04:16:30.572Z,87.20
2022-08-29T04:18:58.496Z,87.30
2022-08-29T04:21:27.248Z,87.10
2022-08-29T04:24:01.614Z,87.10
2022-08-29T04:26:36.738Z,87.10
2022-08-29T04:29:12.404Z,87.00
2022-08-29T04:31:40.480Z,87.20
2022-08-29T04:34:15.191Z,87.20
2022-08-29T04:36:43.258Z,87.20
2022-08-29T04:39:18.355Z,87.20
2022-08-29T04:41:46.068Z,87.20
2022-08-29T04:44:20.394Z,87.20
2022-08-29T04:46:54.247Z,87.20
2022-08-29T04:49:28.454Z,87.20
2022-08-29T04:51:55.604Z,87.20
2022-08-29T04:54:30.232Z,87.10
2022-08-29T04:57:01.909Z,87.10
2022-08-29T04:59:39.319Z,87.20
2022-08-29T05:02:06.463Z,87.20
2022-08-29T05:04:33.828Z,87.10
2022-08-29T05:07:07.341Z,86.90
2022-08-29T05:09:35.533Z,86.90
2022-08-29T05:12:16.345Z,86.90
2022-08-29T05:14:50.644Z,86.90
2022-08-29T05:17:26.074Z,86.80
2022-08-29T05:19:53.794Z,86.80
2022-08-29T05:22:28.422Z,86.90
2022-08-29T05:24:57.623Z,86.90
2022-08-29T05:27:24.954Z,86.80
2022-08-29T05:29:59.274Z,86.90
2022-08-29T05:32:33.302Z,86.80
2022-08-29T05:35:01.133Z,86.70
2022-08-29T05:37:35.254Z,86.70
2022-08-29T05:40:09.255Z,86.80
2022-08-29T05:42:36.562Z,86.80
2022-08-29T05:45:11.312Z,86.70
2022-08-29T05:47:38.572Z,86.60
2022-08-29T05:50:14.289Z,86.50
2022-08-29T05:52:42.345Z,86.50
2022-08-29T05:55:16.203Z,86.60
2022-08-29T05:57:43.292Z,86.70
2022-08-29T06:00:17.442Z,86.50
2022-08-29T06:02:44.613Z,86.60
2022-08-29T06:05:22.219Z,86.60
2022-08-29T06:07:51.084Z,86.60
2022-08-29T06:10:25.269Z,86.50
2022-08-29T06:12:58.720Z,86.50
2022-08-29T06:15:35.410Z,86.50
2022-08-29T06:18:09.280Z,86.50
2022-08-29T06:20:38.001Z,86.60
2022-08-29T06:23:11.316Z,86.60
2022-08-29T06:25:40.026Z,86.60
2022-08-29T06:28:24.011Z,86.70
2022-08-29T06:30:52.031Z,86.60
2022-08-29T06:33:29.379Z,86.70
2022-08-29T06:35:59.162Z,86.60
2022-08-29T06:38:33.547Z,86.50
2022-08-29T06:41:10.464Z,86.50
2022-08-29T06:43:44.532Z,86.50
2022-08-29T06:46:29.543Z,86.50
2022-08-29T06:49:04.877Z,86.40
2022-08-29T06:51:34.734Z,86.30
2022-08-29T06:54:12.976Z,86.40
2022-08-29T06:56:48.266Z,86.40
2022-08-29T06:59:16.652Z,86.20
2022-08-29T07:01:45.172Z,86.10
2022-08-29T07:04:21.362Z,86.00
2022-08-29T07:06:49.611Z,85.90
2022-08-29T07:09:23.633Z,86.00
2022-08-29T07:11:57.634Z,86.00
2022-08-29T07:14:39.525Z,86.00
2022-08-29T07:17:09.840Z,85.80
2022-08-29T07:19:44.953Z,85.80
2022-08-29T07:22:13.003Z,85.80
2022-08-29T07:24:46.382Z,85.90
2022-08-29T07:27:21.991Z,85.80
2022-08-29T07:29:50.808Z,85.70
2022-08-29T07:32:27.075Z,85.70
2022-08-29T07:35:01.417Z,85.60
2022-08-29T07:37:31.878Z,85.50
2022-08-29T07:40:05.469Z,85.30
2022-08-29T07:42:40.414Z,85.30
2022-08-29T07:45:09.663Z,85.20
2022-08-29T07:47:39.213Z,85.10
2022-08-29T07:50:14.458Z,85.00
2022-08-29T07:52:49.094Z,84.90
2022-08-29T07:55:16.621Z,84.90
2022-08-29T07:57:53.331Z,84.40
2022-08-29T08:00:21.322Z,84.40
2022-08-29T08:02:55.714Z,84.30
2022-08-29T08:05:29.386Z,84.40
2022-08-29T08:07:56.979Z,84.40
2022-08-29T08:10:32.285Z,84.30
2022-08-29T08:13:14.420Z,84.30
2022-08-29T08:15:48.773Z,84.20
2022-08-29T08:18:24.329Z,84.10
2022-08-29T08:20:51.795Z,84.00
2022-08-29T08:23:26.387Z,84.00
2022-08-29T08:25:54.628Z,83.90
2022-08-29T08:28:28.481Z,83.60
2022-08-29T08:30:55.987Z,83.60
2022-08-29T08:33:29.529Z,83.60
2022-08-29T08:35:58.848Z,83.30
2022-08-29T08:38:32.878Z,83.10
2022-08-29T08:41:18.153Z,82.90
2022-08-29T08:43:54.486Z,82.60
2022-08-29T08:46:43.548Z,82.20
2022-08-29T08:49:14.607Z,81.90
2022-08-29T08:51:52.487Z,81.90
2022-08-29T08:54:30.345Z,81.50
2022-08-29T08:57:08.767Z,81.40
2022-08-29T08:59:47.437Z,81.30
2022-08-29T09:02:15.600Z,81.00
2022-08-29T09:05:15.527Z,80.70
2022-08-29T09:07:56.813Z,80.60
2022-08-29T09:10:50.482Z,80.70
2022-08-29T09:13:37.139Z,80.40
2022-08-29T09:16:15.295Z,80.10
2022-08-29T09:18:54.256Z,79.80
2022-08-29T09:21:41.084Z,79.60
2022-08-29T09:24:30.995Z,79.20
2022-08-29T09:27:05.281Z,78.60
2022-08-29T09:29:39.646Z,78.40
2022-08-29T09:32:20.183Z,78.30
2022-08-29T09:35:08.043Z,77.70
2022-08-29T09:37:43.570Z,77.40
2022-08-29T09:40:19.718Z,76.30
2022-08-29T09:42:53.941Z,76.20
2022-08-29T09:45:35.999Z,76.00
2022-08-29T09:48:11.087Z,75.80
2022-08-29T09:50:45.684Z,75.80
2022-08-29T09:53:24.686Z,75.70
2022-08-29T09:56:00.178Z,75.80
2022-08-29T09:58:36.225Z,75.60
2022-08-29T10:01:28.262Z,75.40
2022-08-29T10:04:05.324Z,75.40
2022-08-29T10:06:52.599Z,75.50
2022-08-29T10:09:34.601Z,75.30
2022-08-29T10:12:13.495Z,75.10
2022-08-29T10:15:00.586Z,75.00
2022-08-29T10:18:03.294Z,74.80
2022-08-29T10:20:51.096Z,73.70
2022-08-29T10:23:38.170Z,73.50
2022-08-29T10:26:17.497Z,73.30
2022-08-29T10:28:57.965Z,72.90
2022-08-29T10:31:42.010Z,72.60
2022-08-29T10:34:28.848Z,72.60
2022-08-29T10:37:05.135Z,72.10
2022-08-29T10:39:46.544Z,71.90
2022-08-29T10:42:26.501Z,71.60
2022-08-29T10:45:06.334Z,71.10
2022-08-29T10:47:42.644Z,70.60
2022-08-29T10:50:44.576Z,70.30
2022-08-29T10:53:34.868Z,69.60
2022-08-29T10:56:09.663Z,68.50
2022-08-29T10:58:58.850Z,66.30
2022-08-29T11:01:38.636Z,66.20
2022-08-29T11:04:08.702Z,65.80
2022-08-29T11:06:47.575Z,65.40
2022-08-29T11:09:30.542Z,64.90
2022-08-29T11:12:22.765Z,63.90
2022-08-29T11:15:06.709Z,63.40
2022-08-29T11:17:51.625Z,63.20
2022-08-29T11:20:35.464Z,62.00
2022-08-29T11:23:06.699Z,62.10
2022-08-29T11:25:48.643Z,61.50
2022-08-29T11:28:22.482Z,61.20
2022-08-29T11:31:07.852Z,60.80
2022-08-29T11:33:56.997Z,59.90
2022-08-29T11:36:40.702Z,59.60
2022-08-29T11:39:42.556Z,59.30
2022-08-29T11:42:49.862Z,58.90
2022-08-29T11:45:08.600Z,58.00
2022-08-29T11:47:56.994Z,58.50
2022-08-29T11:50:31.031Z,59.30
2022-08-29T11:56:30.704Z,59.50
2022-08-29T11:59:06.340Z,59.00
2022-08-29T12:01:43.739Z,59.10
2022-08-29T12:04:33.592Z,59.00
2022-08-29T12:07:27.037Z,58.90
2022-08-29T12:10:10.541Z,58.70
2022-08-29T12:13:21.248Z,58.20
2022-08-29T12:15:58.630Z,57.90
2022-08-29T12:18:39.693Z,58.40
2022-08-29T12:21:36.298Z,58.80
2022-08-29T12:24:30.757Z,58.20
2022-08-29T12:27:20.366Z,58.30
2022-08-29T12:30:06.667Z,58.40
2022-08-29T12:32:40.909Z,58.20
2022-08-29T12:35:36.861Z,57.90
2022-08-29T12:38:32.982Z,57.40
2022-08-29T12:41:25.749Z,56.40
2022-08-29T12:44:31.826Z,56.00
2022-08-29T12:51:28.260Z,56.00
2022-08-29T13:03:35.829Z,55.00
2022-08-29T13:06:17.758Z,54.40
2022-08-29T13:09:01.222Z,54.00
2022-08-29T13:14:31.090Z,53.00
2022-08-29T13:17:08.902Z,52.70
2022-08-29T13:27:30.698Z,54.40
2022-08-29T13:30:10.153Z,54.40
2022-08-29T13:32:37.801Z,54.30
2022-08-29T13:35:31.696Z,54.00
2022-08-29T13:38:24.735Z,53.60
2022-08-29T13:40:56.024Z,53.70
2022-08-29T13:43:44.729Z,53.70
2022-08-29T13:46:15.514Z,53.50
2022-08-29T13:49:15.524Z,53.20
2022-08-29T13:51:56.584Z,53.10
2022-08-29T13:54:25.529Z,53.00
2022-08-29T13:57:08.894Z,52.80
2022-08-29T13:59:42.664Z,52.70
2022-08-29T14:04:58.966Z,52.40
2022-08-29T14:07:35.486Z,52.70
2022-08-29T14:10:11.733Z,52.70
2022-08-29T14:12:50.676Z,52.70
2022-08-29T14:15:27.654Z,52.90
2022-08-29T14:18:03.283Z,52.90
2022-08-29T14:20:39.540Z,53.20
2022-08-29T14:23:11.337Z,53.30
2022-08-29T14:25:46.948Z,53.30
2022-08-29T14:28:24.037Z,53.30
2022-08-29T14:30:54.033Z,53.20
2022-08-29T14:33:30.689Z,53.00
2022-08-29T14:36:04.589Z,52.90
2022-08-29T14:38:42.087Z,53.10
2022-08-29T14:41:27.668Z,53.10
2022-08-29T14:46:59.187Z,53.30
2022-08-29T14:49:34.754Z,53.30
2022-08-29T14:54:54.110Z,53.60
2022-08-29T14:57:21.679Z,53.70
2022-08-29T14:59:57.679Z,53.70
2022-08-29T15:02:25.846Z,54.00
2022-08-29T15:05:01.720Z,54.20
2022-08-29T15:07:33.254Z,54.40
2022-08-29T15:10:07.611Z,54.90
2022-08-29T15:12:55.930Z,55.30
2022-08-29T15:15:37.503Z,55.60
2022-08-29T15:18:08.223Z,55.90
2022-08-29T15:20:46.822Z,56.00
2022-08-29T15:23:14.728Z,56.00
2022-08-29T15:25:52.045Z,56.10
2022-08-29T15:28:20.054Z,56.30
2022-08-29T15:31:01.116Z,56.30
2022-08-29T15:34:23.646Z,56.50
2022-08-29T15:37:09.626Z,56.50
2022-08-29T15:39:40.935Z,56.40
2022-08-29T15:42:17.199Z,56.50
2022-08-29T15:44:51.625Z,56.70
2022-08-29T15:47:20.254Z,56.80
2022-08-29T15:50:01.227Z,57.00
2022-08-29T15:52:39.720Z,56.90
2022-08-29T15:55:16.560Z,57.10
2022-08-29T15:57:55.506Z,57.10
2022-08-29T16:00:29.603Z,57.20
2022-08-29T16:03:08.209Z,57.40
2022-08-29T16:05:36.368Z,57.60
2022-08-29T16:08:16.596Z,57.70
2022-08-29T16:10:45.688Z,57.80
2022-08-29T16:13:27.008Z,58.00
2022-08-29T16:16:01.467Z,58.00
2022-08-29T16:18:37.793Z,58.10
2022-08-29T16:21:05.208Z,58.20
2022-08-29T16:23:39.691Z,58.40
2022-08-29T16:26:07.202Z,58.60
2022-08-29T16:28:41.741Z,58.90
2022-08-29T16:31:12.128Z,59.10
2022-08-29T16:33:46.654Z,59.20
2022-08-29T16:36:20.443Z,59.40
2022-08-29T16:38:54.753Z,59.60
2022-08-29T16:41:23.498Z,59.70
2022-08-29T16:43:59.410Z,59.80
2022-08-29T16:46:27.369Z,60.10
2022-08-29T16:48:59.355Z,60.40
2022-08-29T16:51:33.965Z,60.50
2022-08-29T16:54:08.015Z,60.80
2022-08-29T16:56:36.256Z,60.80
2022-08-29T17:01:56.391Z,61.20
2022-08-29T17:04:31.772Z,61.80
2022-08-29T17:07:00.252Z,62.20
2022-08-29T17:09:33.942Z,62.60
2022-08-29T17:12:02.040Z,63.00
2022-08-29T17:14:54.361Z,63.30
2022-08-29T17:17:28.486Z,63.60
2022-08-29T17:20:02.536Z,63.90
2022-08-29T17:22:30.025Z,64.10
2022-08-29T17:24:57.198Z,64.60
2022-08-29T17:27:30.603Z,65.00
2022-08-29T17:30:05.003Z,65.30
2022-08-29T17:32:39.489Z,65.70
2022-08-29T17:35:08.469Z,66.10
2022-08-29T17:37:42.473Z,66.30
2022-08-29T17:40:11.007Z,66.60
2022-08-29T17:42:51.948Z,67.00
2022-08-29T17:45:25.569Z,67.20
2022-08-29T17:47:53.047Z,67.40
2022-08-29T17:50:26.623Z,67.70
2022-08-29T17:52:54.282Z,68.00
2022-08-29T17:55:30.135Z,68.40
2022-08-29T17:58:05.949Z,68.70
2022-08-29T18:00:39.623Z,69.10
2022-08-29T18:03:08.024Z,69.40
2022-08-29T18:05:42.200Z,69.60
2022-08-29T18:08:09.548Z,69.70
2022-08-29T18:10:46.541Z,69.90
2022-08-29T18:13:22.065Z,70.10
2022-08-29T18:16:02.753Z,70.30
2022-08-29T18:18:30.113Z,70.50
2022-08-29T18:21:04.674Z,70.60
2022-08-29T18:23:31.904Z,70.70
2022-08-29T18:25:59.305Z,71.00
2022-08-29T18:28:33.484Z,71.10
2022-08-29T18:31:07.760Z,71.30
2022-08-29T18:33:57.342Z,71.40
2022-08-29T18:36:29.749Z,71.80
2022-08-29T18:39:03.820Z,71.90
2022-08-29T18:41:38.667Z,71.90
2022-08-29T18:44:12.568Z,72.10
2022-08-29T18:46:51.596Z,72.20
2022-08-29T18:49:26.643Z,72.30
2022-08-29T18:51:55.669Z,72.50
2022-08-29T18:54:34.118Z,72.60
2022-08-29T18:57:07.509Z,72.70
2022-08-29T18:59:41.583Z,72.80
2022-08-29T19:02:19.680Z,73.00
2022-08-29T19:04:47.963Z,73.10
2022-08-29T19:07:24.224Z,73.20
2022-08-29T19:09:53.453Z,73.50
2022-08-29T19:12:43.694Z,73.70
2022-08-29T19:15:30.629Z,73.80
2022-08-29T19:18:04.764Z,74.00
2022-08-29T19:20:50.604Z,74.00
2022-08-29T19:23:25.723Z,74.00
2022-08-29T19:25:59.594Z,74.00
2022-08-29T19:28:27.634Z,74.10
2022-08-29T19:30:55.747Z,74.20
2022-08-29T19:33:29.464Z,74.20
2022-08-29T19:35:57.179Z,74.20
2022-08-29T19:38:30.504Z,74.30
2022-08-29T19:40:58.488Z,74.50
2022-08-29T19:43:34.991Z,74.60
2022-08-29T19:46:09.814Z,74.60
2022-08-29T19:48:43.707Z,74.60
2022-08-29T19:51:12.856Z,74.60
2022-08-29T19:53:42.036Z,74.40
2022-08-29T19:56:16.570Z,74.50
2022-08-29T19:58:43.906Z,74.60
2022-08-29T20:01:11.614Z,74.70
2022-08-29T20:03:53.739Z,74.70
2022-08-29T20:06:21.325Z,74.90
2022-08-29T20:08:54.824Z,75.20
2022-08-29T20:11:30.638Z,75.30
2022-08-29T20:14:14.247Z,75.30
2022-08-29T20:16:48.890Z,75.00
2022-08-29T20:19:22.489Z,74.90
2022-08-29T20:21:50.745Z,75.10
2022-08-29T20:24:18.139Z,75.20
2022-08-29T20:26:54.504Z,75.30
2022-08-29T20:29:24.234Z,75.30
2022-08-29T20:32:00.788Z,75.30
2022-08-29T20:34:30.519Z,75.50
2022-08-29T20:37:16.619Z,75.40
2022-08-29T20:39:48.666Z,75.40
2022-08-29T20:42:24.164Z,75.50
2022-08-29T20:44:54.159Z,75.70
2022-08-29T20:47:28.824Z,75.70
2022-08-29T20:49:57.589Z,75.60
2022-08-29T20:52:31.579Z,75.60
2022-08-29T20:54:58.765Z,75.50
2022-08-29T20:57:32.700Z,75.80
2022-08-29T21:00:00.038Z,75.80
2022-08-29T21:02:53.359Z,75.90
2022-08-29T21:05:45.639Z,75.90
2022-08-29T21:08:24.602Z,75.70
2022-08-29T21:10:53.499Z,75.70
2022-08-29T21:13:27.844Z,75.70
2022-08-29T21:16:02.802Z,75.70
2022-08-29T21:18:36.459Z,75.60
2022-08-29T21:21:03.800Z,75.70
2022-08-29T21:23:37.719Z,75.60
2022-08-29T21:26:05.060Z,75.70
2022-08-29T21:28:43.349Z,75.60
2022-08-29T21:31:13.547Z,75.70
2022-08-29T21:33:48.539Z,75.90
2022-08-29T21:36:19.141Z,76.00
2022-08-29T21:38:53.662Z,75.90
2022-08-29T21:41:22.019Z,75.90
2022-08-29T21:43:55.698Z,76.00
2022-08-29T21:46:29.070Z,76.20
2022-08-29T21:49:04.709Z,76.30
2022-08-29T21:51:33.060Z,76.30
2022-08-29T21:54:10.337Z,76.20
2022-08-29T21:56:40.924Z,76.10
2022-08-29T21:59:15.669Z,76.00
2022-08-29T22:01:44.028Z,76.00
2022-08-29T22:04:28.120Z,76.20
2022-08-29T22:07:04.567Z,75.90
2022-08-29T22:09:38.750Z,75.90
2022-08-29T22:12:06.269Z,75.90
2022-08-29T22:15:04.558Z,76.20
2022-08-29T22:17:32.099Z,76.30
2022-08-29T22:20:05.685Z,76.30
2022-08-29T22:22:33.035Z,76.10
2022-08-29T22:25:07.044Z,75.90
2022-08-29T22:27:34.600Z,76.00
2022-08-29T22:30:08.887Z,76.20
2022-08-29T22:32:36.526Z,76.00
2022-08-29T22:35:04.965Z,75.80
2022-08-29T22:37:38.601Z,75.70
2022-08-29T22:40:08.477Z,75.60
2022-08-29T22:42:42.784Z,75.60
2022-08-29T22:45:10.897Z,75.70
2022-08-29T22:47:45.638Z,75.80
2022-08-29T22:50:16.113Z,75.70
2022-08-29T22:52:49.878Z,75.90
2022-08-29T22:55:18.475Z,75.90
2022-08-29T22:57:52.823Z,75.80
2022-08-29T23:00:22.700Z,75.90
2022-08-29T23:02:56.795Z,76.30
2022-08-29T23:05:25.296Z,76.50
2022-08-29T23:07:52.634Z,76.50
2022-08-29T23:10:28.683Z,76.30
2022-08-29T23:13:15.746Z,76.10
2022-08-29T23:15:49.710Z,75.80
2022-08-29T23:18:16.855Z,75.80
2022-08-29T23:20:50.760Z,75.80
2022-08-29T23:23:18.147Z,75.90
2022-08-29T23:25:52.520Z,76.00
2022-08-29T23:28:26.725Z,76.00
2022-08-29T23:30:54.403Z,76.00
2022-08-29T23:33:28.490Z,76.30
2022-08-29T23:36:02.654Z,76.30
2022-08-29T23:38:30.180Z,76.00
2022-08-29T23:41:04.654Z,75.90
2022-08-29T23:43:36.206Z,76.20
2022-08-29T23:46:11.771Z,75.90
2022-08-29T23:48:39.652Z,75.80
2022-08-29T23:51:14.726Z,75.80
2022-08-29T23:53:42.963Z,75.90
2022-08-29T23:56:17.649Z,75.80
2022-08-29T23:58:45.265Z,75.70
